sensor_id;sensor_type;location;lat;lon;timestamp;pressure;altitude;pressure_sealevel;temperature;humidity
37648;BME280;23490;53.656;10.076;2023-08-01T00:01:00;98406.19;;;-145.95;100.00
37648;BME280;23490;53.656;10.076;2023-08-01T00:03:25;98387.63;;;-145.95;100.00
37648;BME280;23490;53.656;10.076;2023-08-01T00:05:51;98426.84;;;-145.95;100.00
37648;BME280;23490;53.656;10.076;2023-08-01T00:08:16;98437.16;;;-145.95;100.00
37648;BME280;23490;53.656;10.076;2023-08-01T00:10:42;98433.03;;;-145.95;100.00
37648;BME280;23490;53.656;10.076;2023-08-01T00:13:08;98418.59;;;-145.95;100.00
37648;BME280;23490;53.656;10.076;2023-08-01T00:15:33;98418.59;;;-145.95;100.00
37648;BME280;23490;53.656;10.076;2023-08-01T00:17:59;98447.50;;;-145.95;100.00
37648;BME280;23490;53.656;10.076;2023-08-01T00:20:24;98373.16;;;-145.95;100.00
37648;BME280;23490;53.656;10.076;2023-08-01T00:22:50;98393.81;;;-145.95;100.00
37648;BME280;23490;53.656;10.076;2023-08-01T00:25:15;98406.19;;;-145.95;100.00
37648;BME280;23490;53.656;10.076;2023-08-01T00:27:40;98464.00;;;-145.95;100.00
37648;BME280;23490;53.656;10.076;2023-08-01T00:30:07;98422.72;;;-145.95;100.00
37648;BME280;23490;53.656;10.076;2023-08-01T00:32:32;98426.84;;;-145.95;100.00
37648;BME280;23490;53.656;10.076;2023-08-01T00:34:58;98451.63;;;-145.95;100.00
37648;BME280;23490;53.656;10.076;2023-08-01T00:37:23;98418.59;;;-145.95;100.00
37648;BME280;23490;53.656;10.076;2023-08-01T00:39:48;98451.63;;;-145.95;100.00
37648;BME280;23490;53.656;10.076;2023-08-01T00:42:14;98455.75;;;-145.95;100.00
37648;BME280;23490;53.656;10.076;2023-08-01T00:44:40;98393.81;;;-145.95;100.00
37648;BME280;23490;53.656;10.076;2023-08-01T00:47:05;98445.44;;;-145.95;100.00
37648;BME280;23490;53.656;10.076;2023-08-01T00:49:31;98426.84;;;-145.95;100.00
37648;BME280;23490;53.656;10.076;2023-08-01T00:51:56;98466.06;;;-145.95;100.00
37648;BME280;23490;53.656;10.076;2023-08-01T00:54:22;98488.78;;;-145.95;100.00
37648;BME280;23490;53.656;10.076;2023-08-01T00:56:47;98426.84;;;-145.95;100.00
37648;BME280;23490;53.656;10.076;2023-08-01T00:59:12;98459.88;;;-145.95;100.00
37648;BME280;23490;53.656;10.076;2023-08-01T01:01:38;98426.84;;;-145.95;100.00
37648;BME280;23490;53.656;10.076;2023-08-01T01:04:04;98459.88;;;-145.95;100.00
37648;BME280;23490;53.656;10.076;2023-08-01T01:06:32;98424.78;;;-145.95;100.00
37648;BME280;23490;53.656;10.076;2023-08-01T01:08:59;98451.63;;;-145.95;100.00
37648;BME280;23490;53.656;10.076;2023-08-01T01:11:24;98494.97;;;-145.95;100.00
37648;BME280;23490;53.656;10.076;2023-08-01T01:13:50;98445.44;;;-145.95;100.00
37648;BME280;23490;53.656;10.076;2023-08-01T01:16:19;98455.75;;;-145.95;100.00
37648;BME280;23490;53.656;10.076;2023-08-01T01:18:44;98486.72;;;-145.95;100.00
37648;BME280;23490;53.656;10.076;2023-08-01T01:21:10;98455.75;;;-145.95;100.00
37648;BME280;23490;53.656;10.076;2023-08-01T01:23:35;98472.28;;;-145.95;100.00
37648;BME280;23490;53.656;10.076;2023-08-01T01:26:02;98455.75;;;-145.95;100.00
37648;BME280;23490;53.656;10.076;2023-08-01T01:28:29;98468.13;;;-145.95;100.00
37648;BME280;23490;53.656;10.076;2023-08-01T01:30:56;98445.44;;;-145.95;100.00
37648;BME280;23490;53.656;10.076;2023-08-01T01:33:23;98435.09;;;-145.95;100.00
37648;BME280;23490;53.656;10.076;2023-08-01T01:35:48;98476.41;;;-145.95;100.00
37648;BME280;23490;53.656;10.076;2023-08-01T01:38:13;98426.84;;;-145.95;100.00
37648;BME280;23490;53.656;10.076;2023-08-01T01:40:39;98492.91;;;-145.95;100.00
37648;BME280;23490;53.656;10.076;2023-08-01T01:43:04;98422.72;;;-145.95;100.00
37648;BME280;23490;53.656;10.076;2023-08-01T01:45:29;98447.50;;;-145.95;100.00
37648;BME280;23490;53.656;10.076;2023-08-01T01:47:55;98451.63;;;-145.95;100.00
37648;BME280;23490;53.656;10.076;2023-08-01T01:50:20;98459.88;;;-145.95;100.00
37648;BME280;23490;53.656;10.076;2023-08-01T01:52:46;98468.13;;;-145.95;100.00
37648;BME280;23490;53.656;10.076;2023-08-01T01:55:11;98385.56;;;-145.95;100.00
37648;BME280;23490;53.656;10.076;2023-08-01T01:57:37;98418.59;;;-145.95;100.00
37648;BME280;23490;53.656;10.076;2023-08-01T02:00:06;98468.13;;;-145.95;100.00
37648;BME280;23490;53.656;10.076;2023-08-01T02:02:35;98457.81;;;-145.95;100.00
37648;BME280;23490;53.656;10.076;2023-08-01T02:05:01;98443.38;;;-145.95;100.00
37648;BME280;23490;53.656;10.076;2023-08-01T02:07:26;98451.63;;;-145.95;100.00
37648;BME280;23490;53.656;10.076;2023-08-01T02:09:51;98461.94;;;-145.95;100.00
37648;BME280;23490;53.656;10.076;2023-08-01T02:12:16;98476.41;;;-145.95;100.00
37648;BME280;23490;53.656;10.076;2023-08-01T02:14:42;98443.38;;;-145.95;100.00
37648;BME280;23490;53.656;10.076;2023-08-01T02:17:07;98480.53;;;-145.95;100.00
37648;BME280;23490;53.656;10.076;2023-08-01T02:19:33;98464.00;;;-145.95;100.00
37648;BME280;23490;53.656;10.076;2023-08-01T02:21:58;98447.50;;;-145.95;100.00
37648;BME280;23490;53.656;10.076;2023-08-01T02:24:24;98472.28;;;-145.95;100.00
37648;BME280;23490;53.656;10.076;2023-08-01T02:26:50;98464.00;;;-145.95;100.00
37648;BME280;23490;53.656;10.076;2023-08-01T02:29:15;98476.41;;;-145.95;100.00
37648;BME280;23490;53.656;10.076;2023-08-01T02:31:41;98480.53;;;-145.95;100.00
37648;BME280;23490;53.656;10.076;2023-08-01T02:34:06;98435.09;;;-145.95;100.00
37648;BME280;23490;53.656;10.076;2023-08-01T02:36:32;98447.50;;;-145.95;100.00
37648;BME280;23490;53.656;10.076;2023-08-01T02:38:57;98459.88;;;-145.95;100.00
37648;BME280;23490;53.656;10.076;2023-08-01T02:41:22;98449.56;;;-145.95;100.00
37648;BME280;23490;53.656;10.076;2023-08-01T02:43:48;98408.28;;;-145.95;100.00
37648;BME280;23490;53.656;10.076;2023-08-01T02:46:13;98435.09;;;-145.95;100.00
37648;BME280;23490;53.656;10.076;2023-08-01T02:48:38;98406.19;;;-145.95;100.00
37648;BME280;23490;53.656;10.076;2023-08-01T02:51:04;98391.75;;;-145.95;100.00
37648;BME280;23490;53.656;10.076;2023-08-01T02:53:29;98439.22;;;-145.95;100.00
37648;BME280;23490;53.656;10.076;2023-08-01T02:55:54;98437.16;;;-145.95;100.00
37648;BME280;23490;53.656;10.076;2023-08-01T02:58:20;98418.59;;;-145.95;100.00
37648;BME280;23490;53.656;10.076;2023-08-01T03:00:45;98480.53;;;-145.95;100.00
37648;BME280;23490;53.656;10.076;2023-08-01T03:03:12;98480.53;;;-145.95;100.00
37648;BME280;23490;53.656;10.076;2023-08-01T03:05:38;98406.19;;;-145.95;100.00
37648;BME280;23490;53.656;10.076;2023-08-01T03:08:04;98439.22;;;-145.95;100.00
37648;BME280;23490;53.656;10.076;2023-08-01T03:10:29;98439.22;;;-145.95;100.00
37648;BME280;23490;53.656;10.076;2023-08-01T03:12:55;98426.84;;;-145.95;100.00
37648;BME280;23490;53.656;10.076;2023-08-01T03:15:20;98433.03;;;-145.95;100.00
37648;BME280;23490;53.656;10.076;2023-08-01T03:17:45;98445.44;;;-145.95;100.00
37648;BME280;23490;53.656;10.076;2023-08-01T03:20:11;98422.72;;;-145.95;100.00
37648;BME280;23490;53.656;10.076;2023-08-01T03:22:40;98451.63;;;-145.95;100.00
37648;BME280;23490;53.656;10.076;2023-08-01T03:25:06;98412.41;;;-145.95;100.00
37648;BME280;23490;53.656;10.076;2023-08-01T03:27:36;98461.94;;;-145.95;100.00
37648;BME280;23490;53.656;10.076;2023-08-01T03:30:01;98497.03;;;-145.95;100.00
37648;BME280;23490;53.656;10.076;2023-08-01T03:32:27;98402.06;;;-145.95;100.00
37648;BME280;23490;53.656;10.076;2023-08-01T03:34:52;98437.16;;;-145.95;100.00
37648;BME280;23490;53.656;10.076;2023-08-01T03:37:18;98420.66;;;-145.95;100.00
37648;BME280;23490;53.656;10.076;2023-08-01T03:39:44;98420.66;;;-145.95;100.00
37648;BME280;23490;53.656;10.076;2023-08-01T03:42:09;98441.31;;;-145.95;100.00
37648;BME280;23490;53.656;10.076;2023-08-01T03:44:34;98437.16;;;-145.95;100.00
37648;BME280;23490;53.656;10.076;2023-08-01T03:47:00;98416.53;;;-145.95;100.00
37648;BME280;23490;53.656;10.076;2023-08-01T03:49:25;98395.88;;;-145.95;100.00
37648;BME280;23490;53.656;10.076;2023-08-01T03:51:50;98404.13;;;-145.95;100.00
37648;BME280;23490;53.656;10.076;2023-08-01T03:54:16;98464.00;;;-145.95;100.00
37648;BME280;23490;53.656;10.076;2023-08-01T03:56:41;98418.59;;;-145.95;100.00
37648;BME280;23490;53.656;10.076;2023-08-01T03:59:09;98430.97;;;-145.95;100.00
37648;BME280;23490;53.656;10.076;2023-08-01T04:01:35;98439.22;;;-145.95;100.00
37648;BME280;23490;53.656;10.076;2023-08-01T04:04:00;98410.34;;;-145.95;100.00
37648;BME280;23490;53.656;10.076;2023-08-01T04:06:25;98414.47;;;-145.95;100.00
37648;BME280;23490;53.656;10.076;2023-08-01T04:08:51;98418.59;;;-145.95;100.00
37648;BME280;23490;53.656;10.076;2023-08-01T04:11:17;98406.19;;;-145.95;100.00
37648;BME280;23490;53.656;10.076;2023-08-01T04:13:42;98418.59;;;-145.95;100.00
37648;BME280;23490;53.656;10.076;2023-08-01T04:16:08;98459.88;;;-145.95;100.00
37648;BME280;23490;53.656;10.076;2023-08-01T04:18:33;98428.91;;;-145.95;100.00
37648;BME280;23490;53.656;10.076;2023-08-01T04:20:59;98451.63;;;-145.95;100.00
37648;BME280;23490;53.656;10.076;2023-08-01T04:23:24;98402.06;;;-145.95;100.00
37648;BME280;23490;53.656;10.076;2023-08-01T04:25:49;98352.53;;;-145.95;100.00
37648;BME280;23490;53.656;10.076;2023-08-01T04:28:15;98369.03;;;-145.95;100.00
37648;BME280;23490;53.656;10.076;2023-08-01T04:30:40;98381.44;;;-145.95;100.00
37648;BME280;23490;53.656;10.076;2023-08-01T04:33:05;98408.28;;;-145.95;100.00
37648;BME280;23490;53.656;10.076;2023-08-01T04:35:31;98404.13;;;-145.95;100.00
37648;BME280;23490;53.656;10.076;2023-08-01T04:37:57;98414.47;;;-145.95;100.00
37648;BME280;23490;53.656;10.076;2023-08-01T04:40:22;98410.34;;;-145.95;100.00
37648;BME280;23490;53.656;10.076;2023-08-01T04:42:47;98449.56;;;-145.95;100.00
37648;BME280;23490;53.656;10.076;2023-08-01T04:45:13;98381.44;;;-145.95;100.00
37648;BME280;23490;53.656;10.076;2023-08-01T04:47:39;98381.44;;;-145.95;100.00
37648;BME280;23490;53.656;10.076;2023-08-01T04:50:05;98397.94;;;-145.95;100.00
37648;BME280;23490;53.656;10.076;2023-08-01T04:52:31;98397.94;;;-145.95;100.00
37648;BME280;23490;53.656;10.076;2023-08-01T04:54:56;98443.38;;;-145.95;100.00
37648;BME280;23490;53.656;10.076;2023-08-01T04:57:21;98356.66;;;-145.95;100.00
37648;BME280;23490;53.656;10.076;2023-08-01T04:59:46;98389.69;;;-145.95;100.00
37648;BME280;23490;53.656;10.076;2023-08-01T05:02:12;98393.81;;;-145.95;100.00
37648;BME280;23490;53.656;10.076;2023-08-01T05:04:37;98414.47;;;-145.95;100.00
37648;BME280;23490;53.656;10.076;2023-08-01T05:07:03;98356.66;;;-145.95;100.00
37648;BME280;23490;53.656;10.076;2023-08-01T05:09:29;98373.16;;;-145.95;100.00
37648;BME280;23490;53.656;10.076;2023-08-01T05:11:54;98348.38;;;-145.95;100.00
37648;BME280;23490;53.656;10.076;2023-08-01T05:14:21;98381.44;;;-145.95;100.00
37648;BME280;23490;53.656;10.076;2023-08-01T05:16:46;98406.19;;;-145.95;100.00
37648;BME280;23490;53.656;10.076;2023-08-01T05:19:11;98352.53;;;-145.95;100.00
37648;BME280;23490;53.656;10.076;2023-08-01T05:21:37;98414.47;;;-145.95;100.00
37648;BME280;23490;53.656;10.076;2023-08-01T05:24:02;98369.03;;;-145.95;100.00
37648;BME280;23490;53.656;10.076;2023-08-01T05:26:27;98373.16;;;-145.95;100.00
37648;BME280;23490;53.656;10.076;2023-08-01T05:28:53;98400.00;;;-145.95;100.00
37648;BME280;23490;53.656;10.076;2023-08-01T05:31:18;98364.91;;;-145.95;100.00
37648;BME280;23490;53.656;10.076;2023-08-01T05:33:43;98340.13;;;-145.95;100.00
37648;BME280;23490;53.656;10.076;2023-08-01T05:36:09;98373.16;;;-145.95;100.00
37648;BME280;23490;53.656;10.076;2023-08-01T05:38:34;98311.22;;;-145.95;100.00
37648;BME280;23490;53.656;10.076;2023-08-01T05:40:59;98393.81;;;-145.95;100.00
37648;BME280;23490;53.656;10.076;2023-08-01T05:43:25;98369.03;;;-145.95;100.00
37648;BME280;23490;53.656;10.076;2023-08-01T05:45:50;98354.59;;;-145.95;100.00
37648;BME280;23490;53.656;10.076;2023-08-01T05:48:15;98414.47;;;-145.95;100.00
37648;BME280;23490;53.656;10.076;2023-08-01T05:50:41;98364.91;;;-145.95;100.00
37648;BME280;23490;53.656;10.076;2023-08-01T05:53:06;98369.03;;;-145.95;100.00
37648;BME280;23490;53.656;10.076;2023-08-01T05:55:33;98381.44;;;-145.95;100.00
37648;BME280;23490;53.656;10.076;2023-08-01T05:57:58;98377.28;;;-145.95;100.00
37648;BME280;23490;53.656;10.076;2023-08-01T06:00:24;98340.13;;;-145.95;100.00
37648;BME280;23490;53.656;10.076;2023-08-01T06:02:49;98393.81;;;-145.95;100.00
37648;BME280;23490;53.656;10.076;2023-08-01T06:05:15;98327.75;;;-145.95;100.00
37648;BME280;23490;53.656;10.076;2023-08-01T06:07:40;98348.38;;;-145.95;100.00
37648;BME280;23490;53.656;10.076;2023-08-01T06:10:06;98331.88;;;-145.95;100.00
37648;BME280;23490;53.656;10.076;2023-08-01T06:12:31;98360.78;;;-145.95;100.00
37648;BME280;23490;53.656;10.076;2023-08-01T06:14:56;98356.66;;;-145.95;100.00
37648;BME280;23490;53.656;10.076;2023-08-01T06:17:22;98290.59;;;-145.95;100.00
37648;BME280;23490;53.656;10.076;2023-08-01T06:19:47;98315.38;;;-145.95;100.00
37648;BME280;23490;53.656;10.076;2023-08-01T06:22:13;98354.59;;;-145.95;100.00
37648;BME280;23490;53.656;10.076;2023-08-01T06:24:38;98342.19;;;-145.95;100.00
37648;BME280;23490;53.656;10.076;2023-08-01T06:27:04;98290.59;;;-145.95;100.00
37648;BME280;23490;53.656;10.076;2023-08-01T06:29:30;98315.38;;;-145.95;100.00
37648;BME280;23490;53.656;10.076;2023-08-01T06:31:56;98286.47;;;-145.95;100.00
37648;BME280;23490;53.656;10.076;2023-08-01T06:34:21;98298.84;;;-145.95;100.00
37648;BME280;23490;53.656;10.076;2023-08-01T06:36:46;98282.31;;;-145.95;100.00
37648;BME280;23490;53.656;10.076;2023-08-01T06:39:12;98319.50;;;-145.95;100.00
37648;BME280;23490;53.656;10.076;2023-08-01T06:41:37;98298.84;;;-145.95;100.00
37648;BME280;23490;53.656;10.076;2023-08-01T06:44:02;98286.47;;;-145.95;100.00
37648;BME280;23490;53.656;10.076;2023-08-01T06:46:28;98315.38;;;-145.95;100.00
37648;BME280;23490;53.656;10.076;2023-08-01T06:48:53;98309.16;;;-145.95;100.00
37648;BME280;23490;53.656;10.076;2023-08-01T06:51:18;98309.16;;;-145.95;100.00
37648;BME280;23490;53.656;10.076;2023-08-01T06:53:43;98331.88;;;-145.95;100.00
37648;BME280;23490;53.656;10.076;2023-08-01T06:56:09;98302.97;;;-145.95;100.00
37648;BME280;23490;53.656;10.076;2023-08-01T06:58:34;98302.97;;;-145.95;100.00
37648;BME280;23490;53.656;10.076;2023-08-01T07:00:59;98300.91;;;-145.95;100.00
37648;BME280;23490;53.656;10.076;2023-08-01T07:03:25;98315.38;;;-145.95;100.00
37648;BME280;23490;53.656;10.076;2023-08-01T07:05:50;98265.81;;;-145.95;100.00
37648;BME280;23490;53.656;10.076;2023-08-01T07:08:15;98274.06;;;-145.95;100.00
37648;BME280;23490;53.656;10.076;2023-08-01T07:10:41;98265.81;;;-145.95;100.00
37648;BME280;23490;53.656;10.076;2023-08-01T07:13:06;98298.84;;;-145.95;100.00
37648;BME280;23490;53.656;10.076;2023-08-01T07:15:32;98241.03;;;-145.95;100.00
37648;BME280;23490;53.656;10.076;2023-08-01T07:17:58;98265.81;;;-145.95;100.00
37648;BME280;23490;53.656;10.076;2023-08-01T07:20:23;98259.63;;;-145.95;100.00
37648;BME280;23490;53.656;10.076;2023-08-01T07:22:49;98199.75;;;-145.95;100.00
37648;BME280;23490;53.656;10.076;2023-08-01T07:25:14;98170.84;;;-145.95;100.00
37648;BME280;23490;53.656;10.076;2023-08-01T07:27:41;98203.88;;;-145.95;100.00
37648;BME280;23490;53.656;10.076;2023-08-01T07:30:07;98129.56;;;-145.95;100.00
37648;BME280;23490;53.656;10.076;2023-08-01T07:32:32;98191.50;;;-145.95;100.00
37648;BME280;23490;53.656;10.076;2023-08-01T07:34:58;98148.13;;;-145.95;100.00
37648;BME280;23490;53.656;10.076;2023-08-01T07:37:23;98170.84;;;-145.95;100.00
37648;BME280;23490;53.656;10.076;2023-08-01T07:39:49;98166.72;;;-145.95;100.00
37648;BME280;23490;53.656;10.076;2023-08-01T07:42:15;98189.44;;;-145.95;100.00
37648;BME280;23490;53.656;10.076;2023-08-01T07:44:40;98218.31;;;-145.95;100.00
37648;BME280;23490;53.656;10.076;2023-08-01T07:47:06;98253.44;;;-145.95;100.00
37648;BME280;23490;53.656;10.076;2023-08-01T07:49:31;98170.84;;;-145.95;100.00
37648;BME280;23490;53.656;10.076;2023-08-01T07:51:57;98156.41;;;-145.95;100.00
37648;BME280;23490;53.656;10.076;2023-08-01T07:54:24;98170.84;;;-145.95;100.00
37648;BME280;23490;53.656;10.076;2023-08-01T07:56:49;98154.31;;;-145.95;100.00
37648;BME280;23490;53.656;10.076;2023-08-01T07:59:15;98154.31;;;-145.95;100.00
37648;BME280;23490;53.656;10.076;2023-08-01T08:01:40;98141.94;;;-145.95;100.00
37648;BME280;23490;53.656;10.076;2023-08-01T08:04:06;98150.19;;;-145.95;100.00
37648;BME280;23490;53.656;10.076;2023-08-01T08:06:31;98181.16;;;-145.95;100.00
37648;BME280;23490;53.656;10.076;2023-08-01T08:08:56;98156.41;;;-145.95;100.00
37648;BME280;23490;53.656;10.076;2023-08-01T08:11:22;98117.16;;;-145.95;100.00
37648;BME280;23490;53.656;10.076;2023-08-01T08:13:48;98189.44;;;-145.95;100.00
37648;BME280;23490;53.656;10.076;2023-08-01T08:16:13;98121.28;;;-145.95;100.00
37648;BME280;23490;53.656;10.076;2023-08-01T08:18:39;98092.41;;;-145.95;100.00
37648;BME280;23490;53.656;10.076;2023-08-01T08:21:04;97997.44;;;-145.95;100.00
37648;BME280;23490;53.656;10.076;2023-08-01T08:23:29;97997.44;;;-145.95;100.00
37648;BME280;23490;53.656;10.076;2023-08-01T08:25:55;97989.19;;;-145.95;100.00
37648;BME280;23490;53.656;10.076;2023-08-01T08:28:31;98009.81;;;-145.95;100.00
37648;BME280;23490;53.656;10.076;2023-08-01T08:30:58;97993.31;;;-145.95;99.74
37648;BME280;23490;53.656;10.076;2023-08-01T08:33:23;97902.47;;;-145.95;98.14
37648;BME280;23490;53.656;10.076;2023-08-01T08:35:49;97836.41;;;-145.95;97.84
37648;BME280;23490;53.656;10.076;2023-08-01T08:38:15;97824.03;;;-145.95;92.35
37648;BME280;23490;53.656;10.076;2023-08-01T08:40:43;97902.47;;;-145.95;94.52
37648;BME280;23490;53.656;10.076;2023-08-01T08:43:14;97943.75;;;-145.95;96.77
37648;BME280;23490;53.656;10.076;2023-08-01T08:45:41;97912.78;;;-145.95;98.34
37648;BME280;23490;53.656;10.076;2023-08-01T08:48:13;97925.19;;;-145.95;98.42
37648;BME280;23490;53.656;10.076;2023-08-01T08:50:42;97972.66;;;-145.95;94.45
37648;BME280;23490;53.656;10.076;2023-08-01T08:53:08;97935.50;;;-145.95;96.19
37648;BME280;23490;53.656;10.076;2023-08-01T08:55:39;97947.88;;;-145.95;99.26
37648;BME280;23490;53.656;10.076;2023-08-01T08:58:05;97919.00;;;-145.95;96.72
37648;BME280;23490;53.656;10.076;2023-08-01T09:00:30;97819.91;;;-145.95;98.48
37648;BME280;23490;53.656;10.076;2023-08-01T09:02:56;97857.06;;;-145.95;95.99
37648;BME280;23490;53.656;10.076;2023-08-01T09:05:26;97916.91;;;-145.95;97.42
37648;BME280;23490;53.656;10.076;2023-08-01T09:07:55;97919.00;;;-145.95;97.52
37648;BME280;23490;53.656;10.076;2023-08-01T09:10:22;97974.72;;;-145.95;96.95
37648;BME280;23490;53.656;10.076;2023-08-01T09:12:48;98009.81;;;-145.95;98.63
37648;BME280;23490;53.656;10.076;2023-08-01T09:15:13;98055.22;;;-145.95;100.00
37648;BME280;23490;53.656;10.076;2023-08-01T09:17:54;98075.88;;;-145.95;100.00
37648;BME280;23490;53.656;10.076;2023-08-01T09:20:21;98129.56;;;-145.95;100.00
37648;BME280;23490;53.656;10.076;2023-08-01T09:22:47;98117.16;;;-145.95;100.00
37648;BME280;23490;53.656;10.076;2023-08-01T09:25:13;98158.47;;;-145.95;100.00
37648;BME280;23490;53.656;10.076;2023-08-01T09:27:38;98146.06;;;-145.95;100.00
37648;BME280;23490;53.656;10.076;2023-08-01T09:30:11;98199.75;;;-145.95;100.00
37648;BME280;23490;53.656;10.076;2023-08-01T09:32:40;98247.22;;;-145.95;100.00
37648;BME280;23490;53.656;10.076;2023-08-01T09:35:06;98183.22;;;-145.95;100.00
37648;BME280;23490;53.656;10.076;2023-08-01T09:37:41;98106.84;;;-145.95;100.00
37648;BME280;23490;53.656;10.076;2023-08-01T09:40:08;97985.03;;;-145.95;100.00
37648;BME280;23490;53.656;10.076;2023-08-01T09:42:44;97799.25;;;-145.95;100.00
37648;BME280;23490;53.656;10.076;2023-08-01T09:45:17;97588.72;;;-145.95;100.00
37648;BME280;23490;53.656;10.076;2023-08-01T09:47:43;97520.59;;;-145.95;100.00
37648;BME280;23490;53.656;10.076;2023-08-01T09:50:09;97419.47;;;-145.95;93.95
37648;BME280;23490;53.656;10.076;2023-08-01T09:52:36;97398.81;;;-145.95;87.13
37648;BME280;23490;53.656;10.076;2023-08-01T09:55:02;97394.69;;;-145.95;84.72
37648;BME280;23490;53.656;10.076;2023-08-01T09:57:29;97417.41;;;-145.95;89.48
37648;BME280;23490;53.656;10.076;2023-08-01T09:59:56;97299.75;;;-145.95;84.79
37648;BME280;23490;53.656;10.076;2023-08-01T10:02:26;97466.94;;;-145.95;82.62
37648;BME280;23490;53.656;10.076;2023-08-01T10:04:57;97386.44;;;-145.95;85.67
37648;BME280;23490;53.656;10.076;2023-08-01T10:07:24;97483.44;;;-145.95;84.83
37648;BME280;23490;53.656;10.076;2023-08-01T10:09:54;97605.22;;;-145.95;86.03
37648;BME280;23490;53.656;10.076;2023-08-01T10:12:22;97365.78;;;-145.95;81.08
37648;BME280;23490;53.656;10.076;2023-08-01T10:14:48;97341.03;;;-145.95;79.32
37648;BME280;23490;53.656;10.076;2023-08-01T10:17:14;97211.00;;;-145.95;79.85
37648;BME280;23490;53.656;10.076;2023-08-01T10:19:41;97097.50;;;-145.95;74.29
37648;BME280;23490;53.656;10.076;2023-08-01T10:22:07;97118.13;;;-145.95;72.94
37648;BME280;23490;53.656;10.076;2023-08-01T10:24:33;97033.50;;;-145.95;72.47
37648;BME280;23490;53.656;10.076;2023-08-01T10:27:11;97293.56;;;-145.95;72.65
37648;BME280;23490;53.656;10.076;2023-08-01T10:29:37;97411.19;;;-145.95;74.06
37648;BME280;23490;53.656;10.076;2023-08-01T10:32:03;97522.66;;;-145.95;78.30
37648;BME280;23490;53.656;10.076;2023-08-01T10:34:31;97630.00;;;-145.95;84.99
37648;BME280;23490;53.656;10.076;2023-08-01T10:36:57;97658.91;;;-145.95;78.92
37648;BME280;23490;53.656;10.076;2023-08-01T10:39:24;97681.59;;;-145.95;79.34
37648;BME280;23490;53.656;10.076;2023-08-01T10:42:02;97766.22;;;-145.95;84.97
37648;BME280;23490;53.656;10.076;2023-08-01T10:44:28;97819.91;;;-145.95;85.33
37648;BME280;23490;53.656;10.076;2023-08-01T10:47:00;97840.53;;;-145.95;87.67
37648;BME280;23490;53.656;10.076;2023-08-01T10:49:37;97795.13;;;-145.95;90.63
37648;BME280;23490;53.656;10.076;2023-08-01T10:54:45;97832.28;;;-145.95;90.37
37648;BME280;23490;53.656;10.076;2023-08-01T10:57:15;97799.25;;;-145.95;88.02
37648;BME280;23490;53.656;10.076;2023-08-01T10:59:43;97836.41;;;-145.95;83.45
37648;BME280;23490;53.656;10.076;2023-08-01T11:02:08;97927.25;;;-145.95;82.33
37648;BME280;23490;53.656;10.076;2023-08-01T11:04:34;97902.47;;;-145.95;86.70
37648;BME280;23490;53.656;10.076;2023-08-01T11:06:59;97898.34;;;-145.95;86.71
37648;BME280;23490;53.656;10.076;2023-08-01T11:09:26;97898.34;;;-145.95;88.77
37648;BME280;23490;53.656;10.076;2023-08-01T11:11:54;97941.69;;;-145.95;87.11
37648;BME280;23490;53.656;10.076;2023-08-01T11:14:25;97964.41;;;-145.95;88.12
37648;BME280;23490;53.656;10.076;2023-08-01T11:16:53;97999.50;;;-145.95;87.55
37648;BME280;23490;53.656;10.076;2023-08-01T11:19:20;98113.03;;;-145.95;88.78
37648;BME280;23490;53.656;10.076;2023-08-01T11:21:46;98071.75;;;-145.95;92.90
37648;BME280;23490;53.656;10.076;2023-08-01T11:24:11;98170.84;;;-145.95;99.40
37648;BME280;23490;53.656;10.076;2023-08-01T11:26:43;98232.78;;;-145.95;100.00
37648;BME280;23490;53.656;10.076;2023-08-01T11:29:10;98261.69;;;-145.95;100.00
37648;BME280;23490;53.656;10.076;2023-08-01T11:31:35;98265.81;;;-145.95;100.00
37648;BME280;23490;53.656;10.076;2023-08-01T11:34:00;98294.72;;;-145.95;100.00
37648;BME280;23490;53.656;10.076;2023-08-01T11:36:26;98307.09;;;-145.95;100.00
37648;BME280;23490;53.656;10.076;2023-08-01T11:38:52;98315.38;;;-145.95;100.00
37648;BME280;23490;53.656;10.076;2023-08-01T11:41:18;98352.53;;;-145.95;100.00
37648;BME280;23490;53.656;10.076;2023-08-01T11:43:44;98346.31;;;-145.95;100.00
37648;BME280;23490;53.656;10.076;2023-08-01T11:46:09;98340.13;;;-145.95;100.00
37648;BME280;23490;53.656;10.076;2023-08-01T11:48:36;98360.78;;;-145.95;100.00
37648;BME280;23490;53.656;10.076;2023-08-01T11:51:01;98327.75;;;-145.95;100.00
37648;BME280;23490;53.656;10.076;2023-08-01T11:53:28;98302.97;;;-145.95;100.00
37648;BME280;23490;53.656;10.076;2023-08-01T11:55:54;98327.75;;;-145.95;100.00
37648;BME280;23490;53.656;10.076;2023-08-01T11:58:42;98307.09;;;-145.95;100.00
37648;BME280;23490;53.656;10.076;2023-08-01T12:01:09;98294.72;;;-145.95;100.00
37648;BME280;23490;53.656;10.076;2023-08-01T12:03:54;98276.13;;;-145.95;100.00
37648;BME280;23490;53.656;10.076;2023-08-01T12:06:21;98158.47;;;-145.95;100.00
37648;BME280;23490;53.656;10.076;2023-08-01T12:08:49;98051.09;;;-145.95;100.00
37648;BME280;23490;53.656;10.076;2023-08-01T12:11:20;97947.88;;;-145.95;100.00
37648;BME280;23490;53.656;10.076;2023-08-01T12:13:46;97776.56;;;-145.95;100.00
37648;BME280;23490;53.656;10.076;2023-08-01T12:16:12;97681.59;;;-145.95;91.89
37648;BME280;23490;53.656;10.076;2023-08-01T12:18:41;97768.28;;;-145.95;96.99
37648;BME280;23490;53.656;10.076;2023-08-01T12:21:08;97621.75;;;-145.95;90.93